Kezdőlap
METAR-TAF:

METAR-TAF

Repülőterek :

Flying Cloud Airport

Minneapolis-Eden Prairie, Minnesota, Amerikai Egyesült Államok

földrajzi szélesség: 44-49-56N, földrajzi hosszúság: 093-28-13W, magasság: 287 m

Jelenlegi meteorológiai megfigyelések

A jelentés 33 perccel ezelõtt készült, 09:53 UTC
Dél-délnyugati szél 3 kt
Hőmérséklet -13°C
Páratartalom 78%
Légköri nyomás 1015 hPa
Látótávolság: 6.4 km
Derült ég
Száraz légköri homály

METAR: KFCM 130953Z AUTO 21003KT 4SM HZ CLR M13/M16 A2997 RMK AO2 SLP167 I1000 T11281156

Idő: 04:26 (10:26 UTC)


TAF: hiányzik

Meteorológiai megfigyelések és előrejelzések több, mint 4000 repülőtéren (METAR és TAF jelentéseket).

A térképen piros és sárga pontok jelzik az elérhető meteorológiai állomásokat.

Mozgassa az egeret a pont fölött, hogy megjelenjen az állomás neve.

Azután kattintson az időjárási megfigyelések és előrejelzések megtekintéséhez.

A térkép megváltoztatása: kattintson a fekete keresztel jelölt zöld gombra ráközelítéshez, a vonallal jelölt zöld gombra távolításhoz, vagy a zöld nyilakra a szomszédos térképek eléréséhez.


METAR-TAF: